Morning Laura — 3FUO — position and weather

sailwx.info

Track history (hours):
 
Tides and Currents Weather Stations Pressure Air Temp Water Temp Dewpoint Dewpoint Depression Visibility Wind Speed Wind Dir Waves Ship Positions

Morning Laura

Last reported at 2017-Dec-10 02:32 UTC. Time now 2017-Dec-16 03:36 UTC.
Position N 38°59' W 075°08'.

Length 232 m; draft 8.4 m.

Type: Cargo ship. MMSI: 356732000.

Date/timePositionNaut miles runAvg speedWind from/ knotsBaromVisibWave heightAir tempDewpointWater temp
2017-Dec-10 02:32N 38°59' W 075°08'117.6
2017-Dec-10 02:30N 38°60' W 075°08'917.6
2017-Dec-10 02:00N 39°07' W 075°13'918.4
2017-Dec-10 01:30N 39°15' W 075°19'1019.2
2017-Dec-10 01:00N 39°22' W 075°28'817.0
2017-Dec-10 00:30N 39°29' W 075°34'714.9
2017-Dec-10 00:01N 39°37' W 075°35'714.2
2017-Dec-09 23:31N 39°43' W 075°30'611.3
2017-Dec-09 23:00N 39°48' W 075°26'5 9.0
2017-Dec-09 22:30N 39°50' W 075°21'4 8.6
2017-Dec-09 22:00N 39°51' W 075°16'5 9.3
2017-Dec-09 21:30N 39°53' W 075°10'2 4.2
2017-Dec-09 20:59N 39°54' W 075°08'0 0.0
2017-Dec-09 20:29N 39°54' W 075°08'0 0.0
2017-Dec-09 19:59N 39°54' W 075°08'0 0.0
2017-Dec-09 19:29N 39°54' W 075°08'0 0.0
2017-Dec-09 18:59N 39°54' W 075°08'0 0.0
2017-Dec-09 18:29N 39°54' W 075°08'0 0.0
2017-Dec-09 17:59N 39°54' W 075°08'0 0.0
2017-Dec-09 17:29N 39°54' W 075°08'0 0.0
2017-Dec-09 16:59N 39°54' W 075°08'0 0.0
2017-Dec-09 16:29N 39°54' W 075°08'0 0.0
2017-Dec-09 15:59N 39°54' W 075°08'0 0.0
2017-Dec-09 15:29N 39°54' W 075°08'0 0.0
2017-Dec-09 14:59N 39°54' W 075°08'0 0.0
2017-Dec-09 14:29N 39°54' W 075°08'0 0.0
2017-Dec-09 13:59N 39°54' W 075°08'0 0.0
2017-Dec-09 13:29N 39°54' W 075°08'0 0.0
2017-Dec-09 12:59N 39°54' W 075°08'0 0.0
2017-Dec-09 12:29N 39°54' W 075°08'0 0.0
2017-Dec-09 11:59N 39°54' W 075°08'0 0.0
2017-Dec-09 11:29N 39°54' W 075°08'0 0.0
2017-Dec-09 10:59N 39°54' W 075°08'0 0.0
2017-Dec-09 10:29N 39°54' W 075°08'0 0.0
2017-Dec-09 09:59N 39°54' W 075°08'0 0.5
2017-Dec-09 09:30N 39°54' W 075°08'3 5.1
2017-Dec-09 09:01N 39°53' W 075°11'510.0
2017-Dec-09 08:31N 39°51' W 075°17'4 8.1
2017-Dec-09 08:00N 39°50' W 075°22'4 8.4
2017-Dec-09 07:31N 39°48' W 075°27'510.2
2017-Dec-09 07:01N 39°43' W 075°30'611.1
2017-Dec-09 06:31N 39°38' W 075°34'510.8
2017-Dec-09 06:01N 39°33' W 075°32'612.3
2017-Dec-09 05:30N 39°27' W 075°33'714.0
2017-Dec-09 05:00N 39°22' W 075°27'714.7
2017-Dec-09 04:30N 39°16' W 075°21'612.8
2017-Dec-09 04:00N 39°11' W 075°16'612.2
2017-Dec-09 03:31N 39°06' W 075°12'  
Track history (hours):
 
Tides and Currents Weather Stations Pressure Air Temp Water Temp Dewpoint Dewpoint Depression Visibility Wind Speed Wind Dir Waves Ship Positions

Morning Laura

Last reported at 2017-Dec-10 02:32 UTC. Time now 2017-Dec-16 03:36 UTC.
Position N 38°59' W 075°08'.

Length 232 m; draft 8.4 m.

Type: Cargo ship. MMSI: 356732000.

Date/timePositionNaut miles runAvg speedWind from/ knotsBaromVisibWave heightAir tempDewpointWater temp
2017-Dec-10 02:32N 38°59' W 075°08'117.6
2017-Dec-10 02:30N 38°60' W 075°08'917.6
2017-Dec-10 02:00N 39°07' W 075°13'918.4
2017-Dec-10 01:30N 39°15' W 075°19'1019.2
2017-Dec-10 01:00N 39°22' W 075°28'817.0
2017-Dec-10 00:30N 39°29' W 075°34'714.9
2017-Dec-10 00:01N 39°37' W 075°35'714.2
2017-Dec-09 23:31N 39°43' W 075°30'611.3
2017-Dec-09 23:00N 39°48' W 075°26'5 9.0
2017-Dec-09 22:30N 39°50' W 075°21'4 8.6
2017-Dec-09 22:00N 39°51' W 075°16'5 9.3
2017-Dec-09 21:30N 39°53' W 075°10'2 4.2
2017-Dec-09 20:59N 39°54' W 075°08'0 0.0
2017-Dec-09 20:29N 39°54' W 075°08'0 0.0
2017-Dec-09 19:59N 39°54' W 075°08'0 0.0
2017-Dec-09 19:29N 39°54' W 075°08'0 0.0
2017-Dec-09 18:59N 39°54' W 075°08'0 0.0
2017-Dec-09 18:29N 39°54' W 075°08'0 0.0
2017-Dec-09 17:59N 39°54' W 075°08'0 0.0
2017-Dec-09 17:29N 39°54' W 075°08'0 0.0
2017-Dec-09 16:59N 39°54' W 075°08'0 0.0
2017-Dec-09 16:29N 39°54' W 075°08'0 0.0
2017-Dec-09 15:59N 39°54' W 075°08'0 0.0
2017-Dec-09 15:29N 39°54' W 075°08'0 0.0
2017-Dec-09 14:59N 39°54' W 075°08'0 0.0
2017-Dec-09 14:29N 39°54' W 075°08'0 0.0
2017-Dec-09 13:59N 39°54' W 075°08'0 0.0
2017-Dec-09 13:29N 39°54' W 075°08'0 0.0
2017-Dec-09 12:59N 39°54' W 075°08'0 0.0
2017-Dec-09 12:29N 39°54' W 075°08'0 0.0
2017-Dec-09 11:59N 39°54' W 075°08'0 0.0
2017-Dec-09 11:29N 39°54' W 075°08'0 0.0
2017-Dec-09 10:59N 39°54' W 075°08'0 0.0
2017-Dec-09 10:29N 39°54' W 075°08'0 0.0
2017-Dec-09 09:59N 39°54' W 075°08'0 0.5
2017-Dec-09 09:30N 39°54' W 075°08'3 5.1
2017-Dec-09 09:01N 39°53' W 075°11'510.0
2017-Dec-09 08:31N 39°51' W 075°17'4 8.1
2017-Dec-09 08:00N 39°50' W 075°22'4 8.4
2017-Dec-09 07:31N 39°48' W 075°27'510.2
2017-Dec-09 07:01N 39°43' W 075°30'611.1
2017-Dec-09 06:31N 39°38' W 075°34'510.8
2017-Dec-09 06:01N 39°33' W 075°32'612.3
2017-Dec-09 05:30N 39°27' W 075°33'714.0
2017-Dec-09 05:00N 39°22' W 075°27'714.7
2017-Dec-09 04:30N 39°16' W 075°21'612.8
2017-Dec-09 04:00N 39°11' W 075°16'612.2
2017-Dec-09 03:31N 39°06' W 075°12'  

Dump ship's entire track history